Time;durP1;ratioP1;P1;durP2;ratioP2;P2;SDS_P1;SDS_P2;PMS_P1;PMS_P2;Temp;Humidity;BMP_temperature;BMP_pressure;BME280_temperature;BME280_humidity;BME280_pressure;Samples;Min_cycle;Max_cycle;Signal;HPM_P1;HPM_P2
2022/04/07 00:00:01;;;;;;;1.87;1.77;;;;;;;10.47;75.32;98332.19;4998511;28;20206;-77
2022/04/07 00:02:26;;;;;;;3.17;1.20;;;;;;;10.45;75.18;98320.97;4998851;28;20621;-77
2022/04/07 00:04:51;;;;;;;2.63;1.40;;;;;;;10.45;74.70;98327.09;4998949;28;20235;-77
2022/04/07 00:07:17;;;;;;;1.43;1.10;;;;;;;10.44;74.20;98335.91;4998730;28;20223;-78
2022/04/07 00:09:42;;;;;;;1.13;1.03;;;;;;;10.42;74.07;98329.94;5000028;28;20218;-72
2022/04/07 00:12:08;;;;;;;1.20;0.90;;;;;;;10.42;73.15;98324.69;4999306;28;20202;-74
2022/04/07 00:14:34;;;;;;;2.87;0.80;;;;;;;10.40;72.42;98331.88;4998434;28;20746;-76
2022/04/07 00:16:59;;;;;;;0.97;0.87;;;;;;;10.40;71.65;98332.72;4996549;28;20318;-77
2022/04/07 00:19:25;;;;;;;2.33;1.30;;;;;;;10.40;71.17;98335.34;4998060;28;20610;-76
2022/04/07 00:21:50;;;;;;;0.70;0.63;;;;;;;10.39;70.70;98331.03;4998088;28;20222;-75
2022/04/07 00:24:16;;;;;;;0.90;0.80;;;;;;;10.39;69.73;98319.69;4998458;28;20230;-77
2022/04/07 00:26:41;;;;;;;1.57;0.80;;;;;;;10.39;69.18;98325.78;4997818;28;20246;-77
2022/04/07 00:29:07;;;;;;;0.80;0.80;;;;;;;10.38;69.33;98326.75;4997236;28;20297;-75
2022/04/07 00:31:39;;;;;;;0.80;0.70;;;;;;;10.38;68.49;98323.28;4997580;28;20206;-74
2022/04/07 00:34:06;;;;;;;1.10;0.80;;;;;;;10.36;68.12;98307.66;4997429;28;20349;-75
2022/04/07 00:36:31;;;;;;;0.73;0.70;;;;;;;10.37;67.96;98317.22;4997552;28;20230;-75
2022/04/07 00:38:57;;;;;;;2.40;1.03;;;;;;;10.36;67.90;98307.66;4998036;28;20686;-76
2022/04/07 00:41:22;;;;;;;1.90;0.90;;;;;;;10.35;68.34;98308.63;4997084;28;20222;-78
2022/04/07 00:43:53;;;;;;;2.93;0.93;;;;;;;10.32;69.09;98308.91;5012201;28;20564;-76
2022/04/07 00:46:19;;;;;;;1.20;1.08;;;;;;;10.29;69.72;98303.91;4997226;28;20235;-77
2022/04/07 00:48:46;;;;;;;1.90;1.10;;;;;;;10.25;70.28;98302.44;4996238;28;20221;-74
2022/04/07 00:51:11;;;;;;;1.40;1.10;;;;;;;10.23;70.81;98295.66;4996780;28;20214;-78
2022/04/07 00:53:38;;;;;;;1.40;1.10;;;;;;;10.20;70.80;98300.19;4997311;28;20579;-77
2022/04/07 00:56:06;;;;;;;1.60;1.10;;;;;;;10.18;71.36;98296.06;4996302;28;20361;-77
2022/04/07 00:58:33;;;;;;;1.33;1.05;;;;;;;10.15;71.37;98291.91;4995165;28;20214;-77
2022/04/07 01:00:59;;;;;;;1.50;1.20;;;;;;;10.14;71.82;98287.59;4998985;28;20308;-78
2022/04/07 01:03:25;;;;;;;1.70;1.30;;;;;;;10.14;71.75;98290.22;4996856;28;20297;-78
2022/04/07 01:05:50;;;;;;;2.35;1.40;;;;;;;10.12;71.97;98275.56;4996607;28;20230;-74
2022/04/07 01:08:16;;;;;;;2.07;1.20;;;;;;;10.11;71.90;98273.91;4995760;28;20534;-75
2022/04/07 01:10:42;;;;;;;1.67;1.00;;;;;;;10.10;72.21;98287.97;4996433;28;20289;-75
2022/04/07 01:13:08;;;;;;;1.45;1.08;;;;;;;10.08;72.27;98276.78;4995255;28;20448;-73
2022/04/07 01:15:34;;;;;;;1.35;1.25;;;;;;;10.07;72.33;98275.09;4998427;28;20234;-77
2022/04/07 01:18:02;;;;;;;1.80;1.20;;;;;;;10.07;72.19;98269.84;4996224;28;20216;-75
2022/04/07 01:20:28;;;;;;;1.50;1.30;;;;;;;10.04;72.73;98263.06;4996798;28;20413;-78
2022/04/07 01:22:55;;;;;;;2.43;2.30;;;;;;;10.02;72.66;98253.66;4995825;28;20272;-74
2022/04/07 01:25:20;;;;;;;1.45;1.33;;;;;;;9.99;72.63;98257.41;4995706;28;20251;-77
2022/04/07 01:27:49;;;;;;;1.70;1.23;;;;;;;10.00;73.03;98253.81;4995936;28;20226;-78
2022/04/07 01:30:16;;;;;;;2.03;1.38;;;;;;;9.96;73.06;98258.50;4995235;28;20699;-77
2022/04/07 01:32:45;;;;;;;1.88;1.30;;;;;;;9.97;73.03;98254.06;4995752;28;20199;-77
2022/04/07 01:35:12;;;;;;;3.25;1.50;;;;;;;9.96;73.13;98263.72;4995333;28;20436;-74
2022/04/07 01:37:40;;;;;;;4.38;2.00;;;;;;;9.97;73.21;98254.91;4996621;28;20210;-79
2022/04/07 01:40:08;;;;;;;3.72;1.52;;;;;;;9.95;73.35;98243.69;4997379;28;20219;-74
2022/04/07 01:42:36;;;;;;;2.22;1.50;;;;;;;9.96;73.41;98234.88;4995950;28;20218;-74
2022/04/07 01:45:04;;;;;;;2.13;1.58;;;;;;;9.93;73.85;98235.09;5010135;28;20658;-75
2022/04/07 01:47:33;;;;;;;3.50;2.25;;;;;;;9.89;74.09;98231.09;4998197;28;20414;-76
2022/04/07 01:50:07;;;;;;;2.50;1.95;;;;;;;9.86;74.17;98233.97;4996116;28;20640;-73
2022/04/07 01:52:35;;;;;;;4.28;2.08;;;;;;;9.82;74.29;98245.66;4996837;28;20698;-75
2022/04/07 01:55:01;;;;;;;3.55;1.80;;;;;;;9.80;74.42;98239.69;5000056;28;20221;-74
2022/04/07 01:57:27;;;;;;;2.17;1.70;;;;;;;9.79;74.51;98237.22;5005001;28;20290;-76
2022/04/07 01:59:53;;;;;;;1.95;1.75;;;;;;;9.78;74.58;98253.94;5022888;28;20690;-73
2022/04/07 02:02:21;;;;;;;2.35;1.70;;;;;;;9.78;74.45;98254.75;5001567;28;20210;-75
2022/04/07 02:04:56;;;;;;;3.65;1.67;;;;;;;9.78;74.46;98252.13;5005493;28;20250;-75
2022/04/07 02:07:22;;;;;;;1.95;1.67;;;;;;;9.79;74.53;98258.19;5003780;28;20769;-75
2022/04/07 02:09:48;;;;;;;1.63;1.30;;;;;;;9.79;74.53;98239.84;5003873;28;20210;-74
2022/04/07 02:12:15;;;;;;;2.90;1.60;;;;;;;9.79;74.37;98227.56;5004437;28;20265;-73
2022/04/07 02:14:40;;;;;;;2.88;1.60;;;;;;;9.77;74.28;98220.78;5021193;28;20289;-75
2022/04/07 02:17:06;;;;;;;2.65;2.20;;;;;;;9.74;74.18;98227.94;5002722;28;20234;-77
2022/04/07 02:19:32;;;;;;;1.30;1.17;;;;;;;9.73;74.04;98228.06;5002954;28;20580;-76
2022/04/07 02:21:58;;;;;;;3.67;1.60;;;;;;;9.71;73.69;98220.31;5004210;28;20569;-76
2022/04/07 02:24:23;;;;;;;1.40;1.10;;;;;;;9.70;73.48;98210.81;5000964;28;20850;-75
2022/04/07 02:26:49;;;;;;;1.23;1.13;;;;;;;9.71;73.47;98209.00;4999964;28;20482;-75
2022/04/07 02:29:14;;;;;;;2.03;1.60;;;;;;;9.69;73.06;98203.03;5001238;28;20211;-75
2022/04/07 02:31:39;;;;;;;2.42;1.63;;;;;;;9.70;73.15;98204.72;4994148;28;20597;-76
2022/04/07 02:34:05;;;;;;;1.80;1.20;;;;;;;9.69;73.15;98200.44;5019214;28;20753;-75
2022/04/07 02:36:30;;;;;;;1.40;1.10;;;;;;;9.67;72.85;98197.13;5000482;28;20312;-76
2022/04/07 02:38:56;;;;;;;2.40;1.20;;;;;;;9.68;72.82;98204.03;5001783;28;20206;-75
2022/04/07 02:41:22;;;;;;;1.47;1.10;;;;;;;9.67;72.75;98195.31;5001551;28;20203;-75
2022/04/07 02:43:48;;;;;;;1.30;1.10;;;;;;;9.67;72.39;98192.72;4999899;28;20202;-75
2022/04/07 02:46:14;;;;;;;6.68;1.67;;;;;;;9.68;72.43;98186.50;4999973;28;20227;-76
2022/04/07 02:48:40;;;;;;;1.45;0.80;;;;;;;9.70;72.16;98189.00;5001976;28;20761;-75
2022/04/07 02:51:05;;;;;;;1.00;0.90;;;;;;;9.70;72.27;98178.50;5001230;28;20664;-75
2022/04/07 02:53:31;;;;;;;2.83;1.00;;;;;;;9.71;72.33;98173.13;5000883;28;20751;-75
2022/04/07 02:55:57;;;;;;;1.60;1.03;;;;;;;9.72;72.33;98176.56;4999184;28;20379;-75
2022/04/07 02:58:22;;;;;;;1.20;1.00;;;;;;;9.70;72.30;98181.13;5000840;28;20483;-76
2022/04/07 03:00:48;;;;;;;0.93;0.70;;;;;;;9.72;72.43;98173.94;4999725;28;20642;-76
2022/04/07 03:03:13;;;;;;;1.23;1.00;;;;;;;9.73;72.43;98179.06;5002282;28;20487;-75
2022/04/07 03:05:39;;;;;;;1.50;0.90;;;;;;;9.75;72.28;98184.22;5001756;28;20703;-75
2022/04/07 03:08:04;;;;;;;1.10;1.00;;;;;;;9.77;72.24;98177.03;5000707;28;20297;-74
2022/04/07 03:10:30;;;;;;;0.80;0.80;;;;;;;9.78;72.06;98167.38;5000012;28;20202;-74
2022/04/07 03:12:56;;;;;;;1.10;1.00;;;;;;;9.78;72.07;98162.97;5003454;28;20222;-74
2022/04/07 03:15:21;;;;;;;1.10;1.00;;;;;;;9.79;72.03;98163.81;5000002;28;20242;-73
2022/04/07 03:17:46;;;;;;;1.10;0.90;;;;;;;9.76;71.75;98170.13;5001597;28;20211;-77
2022/04/07 03:20:12;;;;;;;1.47;0.83;;;;;;;9.75;71.95;98163.22;4998752;28;20214;-75
2022/04/07 03:22:37;;;;;;;1.10;0.97;;;;;;;9.77;71.62;98161.28;5001735;28;20218;-74
2022/04/07 03:25:03;;;;;;;1.23;0.80;;;;;;;9.78;71.63;98157.72;4999956;28;20235;-77
2022/04/07 03:27:29;;;;;;;0.80;0.70;;;;;;;9.78;71.37;98126.25;5000989;28;20711;-78
2022/04/07 03:29:54;;;;;;;1.30;0.93;;;;;;;9.80;71.22;98142.66;4999187;28;21315;-76
2022/04/07 03:32:20;;;;;;;1.00;0.80;;;;;;;9.82;71.13;98129.44;5000253;28;20764;-79
2022/04/07 03:34:45;;;;;;;1.10;0.90;;;;;;;9.81;71.22;98144.34;5014986;28;20238;-74
2022/04/07 03:37:11;;;;;;;1.20;0.90;;;;;;;9.80;71.15;98132.19;5002780;28;20701;-75
2022/04/07 03:39:36;;;;;;;1.10;0.80;;;;;;;9.80;71.18;98132.19;5002706;28;20391;-75
2022/04/07 03:42:02;;;;;;;1.00;0.90;;;;;;;9.77;71.25;98129.81;5002398;28;20492;-75
2022/04/07 03:44:28;;;;;;;1.10;0.80;;;;;;;9.75;71.28;98135.22;5002976;28;20715;-75
2022/04/07 03:46:53;;;;;;;0.80;0.80;;;;;;;9.73;71.38;98150.25;5017607;28;21043;-75
2022/04/07 03:49:20;;;;;;;1.57;0.70;;;;;;;9.77;70.92;98132.44;5002040;28;20297;-75
2022/04/07 03:51:45;;;;;;;1.63;0.60;;;;;;;9.75;71.26;98127.34;5001744;28;20205;-75
2022/04/07 03:54:11;;;;;;;0.97;0.90;;;;;;;9.74;71.35;98119.59;5001583;28;20205;-75
2022/04/07 03:56:37;;;;;;;0.90;0.80;;;;;;;9.74;71.46;98114.34;5001304;28;21640;-76
2022/04/07 03:59:02;;;;;;;1.40;1.00;;;;;;;9.75;71.27;98118.66;5001328;28;20217;-75
2022/04/07 04:01:28;;;;;;;0.90;0.70;;;;;;;9.77;71.35;98121.13;4999872;28;20285;-75
2022/04/07 04:03:54;;;;;;;2.80;0.80;;;;;;;9.78;71.09;98113.16;5001466;28;20583;-75
2022/04/07 04:06:20;;;;;;;1.10;0.73;;;;;;;9.77;71.23;98127.19;5017726;28;20262;-75
2022/04/07 04:08:45;;;;;;;0.90;0.70;;;;;;;9.78;71.28;98125.44;4999865;28;20485;-77
2022/04/07 04:11:12;;;;;;;1.33;0.63;;;;;;;9.78;71.21;98118.41;5000686;28;20625;-76
2022/04/07 04:13:38;;;;;;;1.05;0.90;;;;;;;9.75;71.23;98122.09;5001913;28;20214;-77
2022/04/07 04:16:04;;;;;;;2.30;1.00;;;;;;;9.74;71.31;98122.22;4998979;28;20580;-76
2022/04/07 04:18:29;;;;;;;0.73;0.73;;;;;;;9.73;71.31;98120.56;4999812;28;20582;-77
2022/04/07 04:20:55;;;;;;;0.97;0.80;;;;;;;9.72;71.59;98124.13;5000082;28;20320;-76
2022/04/07 04:23:20;;;;;;;0.87;0.70;;;;;;;9.70;71.75;98133.94;4999229;28;20695;-76
2022/04/07 04:25:46;;;;;;;0.73;0.73;;;;;;;9.68;72.09;98123.56;5000688;28;20254;-76
2022/04/07 04:28:12;;;;;;;1.35;0.80;;;;;;;9.68;71.94;98115.69;4998968;28;20215;-76
2022/04/07 04:30:38;;;;;;;1.77;0.85;;;;;;;9.69;72.10;98121.78;5002452;28;20206;-76
2022/04/07 04:33:03;;;;;;;1.90;0.90;;;;;;;9.72;72.24;98113.66;4998761;28;21275;-76
2022/04/07 04:35:29;;;;;;;1.03;0.77;;;;;;;9.72;72.28;98111.03;5012771;28;20500;-76
2022/04/07 04:37:54;;;;;;;0.90;0.83;;;;;;;9.71;72.20;98093.63;4999912;28;20218;-76
2022/04/07 04:40:20;;;;;;;0.73;0.73;;;;;;;9.71;72.27;98094.47;4999468;28;20454;-77
2022/04/07 04:42:45;;;;;;;2.27;0.70;;;;;;;9.73;71.97;98091.72;4999265;28;20221;-77
2022/04/07 04:45:11;;;;;;;0.70;0.60;;;;;;;9.76;71.95;98101.94;4999413;28;20504;-76
2022/04/07 04:47:36;;;;;;;0.93;0.70;;;;;;;9.77;71.75;98093.13;4998882;28;20679;-76
2022/04/07 04:50:06;;;;;;;1.83;0.90;;;;;;;9.81;71.43;98091.91;4998426;28;20202;-77
2022/04/07 04:52:31;;;;;;;0.80;0.80;;;;;;;9.83;71.59;98100.50;4998540;28;20210;-77
2022/04/07 04:54:57;;;;;;;2.50;0.70;;;;;;;9.85;71.34;98101.16;4998847;28;20227;-76
2022/04/07 04:57:22;;;;;;;0.90;0.70;;;;;;;9.89;70.97;98113.06;5000450;28;20238;-75
2022/04/07 04:59:48;;;;;;;0.80;0.70;;;;;;;9.97;70.35;98110.63;4999971;28;20781;-75
2022/04/07 05:02:13;;;;;;;1.20;0.90;;;;;;;10.01;70.32;98100.69;5000504;28;20471;-74
2022/04/07 05:04:38;;;;;;;1.67;0.70;;;;;;;10.04;70.43;98094.34;5002717;28;21407;-76
2022/04/07 05:07:04;;;;;;;1.53;0.80;;;;;;;10.04;70.39;98083.84;5002035;28;20191;-77
2022/04/07 05:09:29;;;;;;;0.70;0.70;;;;;;;10.04;70.15;98089.09;5003414;28;20708;-77
2022/04/07 05:11:55;;;;;;;0.83;0.80;;;;;;;10.06;70.37;98097.69;5017336;28;20801;-76
2022/04/07 05:14:20;;;;;;;1.00;0.80;;;;;;;10.06;70.19;98089.81;5001272;28;20227;-77
2022/04/07 05:16:46;;;;;;;1.67;0.90;;;;;;;10.11;70.05;98079.75;5003211;28;20710;-77
2022/04/07 05:19:11;;;;;;;1.33;0.90;;;;;;;10.11;69.94;98072.72;5016773;28;20210;-76
2022/04/07 05:21:37;;;;;;;0.70;0.60;;;;;;;10.16;69.74;98074.94;5004944;28;20242;-77
2022/04/07 05:24:02;;;;;;;1.00;0.70;;;;;;;10.18;69.44;98065.16;5000070;28;20203;-76
2022/04/07 05:26:28;;;;;;;1.27;1.00;;;;;;;10.18;69.80;98063.34;4999858;28;20239;-77
2022/04/07 05:28:53;;;;;;;1.10;0.80;;;;;;;10.22;69.75;98060.47;5001036;28;20271;-77
2022/04/07 05:31:19;;;;;;;0.70;0.60;;;;;;;10.25;69.59;98075.94;5001820;28;20493;-77
2022/04/07 05:33:44;;;;;;;1.10;0.80;;;;;;;10.28;69.33;98071.28;5005086;28;20202;-77
2022/04/07 05:36:10;;;;;;;2.90;1.20;;;;;;;10.28;69.54;98060.78;5005770;28;20320;-77
2022/04/07 05:38:35;;;;;;;1.10;0.87;;;;;;;10.33;69.68;98047.25;5006882;28;20265;-77
2022/04/07 05:41:00;;;;;;;0.97;0.70;;;;;;;10.35;69.45;98032.22;5005479;28;20215;-77
2022/04/07 05:43:26;;;;;;;1.47;0.80;;;;;;;10.35;69.41;98042.72;5005957;28;20393;-77
2022/04/07 05:45:52;;;;;;;0.83;0.60;;;;;;;10.33;69.29;98032.34;5007604;28;20229;-77
2022/04/07 05:48:18;;;;;;;4.65;1.17;;;;;;;10.33;69.18;98048.09;5004159;28;20221;-77
2022/04/07 05:50:44;;;;;;;2.13;0.85;;;;;;;10.35;68.80;98037.47;5007058;28;20206;-77
2022/04/07 05:53:10;;;;;;;1.73;0.97;;;;;;;10.40;68.45;98030.03;5005449;28;20710;-76
2022/04/07 05:55:36;;;;;;;1.88;0.80;;;;;;;10.38;68.48;98030.16;5004665;28;20290;-77
2022/04/07 05:58:07;;;;;;;1.08;0.73;;;;;;;10.39;68.15;98026.53;5007029;28;20289;-77
2022/04/07 06:00:33;;;;;;;0.85;0.73;;;;;;;10.40;67.77;98030.84;5006024;28;20217;-76
2022/04/07 06:02:59;;;;;;;1.13;0.90;;;;;;;10.44;67.56;98034.03;5003994;28;20206;-77
2022/04/07 06:05:25;;;;;;;5.40;3.03;;;;;;;10.48;67.27;98029.34;5006751;28;21158;-76
2022/04/07 06:07:50;;;;;;;1.40;0.90;;;;;;;10.52;66.62;98025.47;5005370;28;20360;-76
2022/04/07 06:10:16;;;;;;;3.23;1.60;;;;;;;10.57;66.57;98020.66;5005533;28;20210;-76
2022/04/07 06:12:43;;;;;;;0.80;0.63;;;;;;;10.64;66.01;98024.41;5004031;28;20548;-77
2022/04/07 06:15:10;;;;;;;0.70;0.60;;;;;;;10.69;65.84;98016.09;5003781;28;20630;-77
2022/04/07 06:17:50;;;;;;;0.70;0.68;;;;;;;10.72;65.82;98007.94;5003142;28;20257;-77
2022/04/07 06:20:16;;;;;;;1.05;0.77;;;;;;;10.73;65.39;98018.31;5004820;28;20683;-77
2022/04/07 06:22:43;;;;;;;1.23;0.70;;;;;;;10.76;65.09;98025.91;5008161;28;20303;-77
2022/04/07 06:25:09;;;;;;;3.70;0.70;;;;;;;10.81;64.72;98015.00;5002814;28;20230;-77
2022/04/07 06:27:36;;;;;;;1.50;0.90;;;;;;;10.82;64.54;98017.47;5003705;28;20716;-76
2022/04/07 06:30:06;;;;;;;1.35;0.75;;;;;;;10.91;64.02;98025.50;5004857;28;20216;-76
2022/04/07 06:32:32;;;;;;;0.85;0.80;;;;;;;10.90;64.69;98011.53;5002661;28;20235;-76
2022/04/07 06:34:58;;;;;;;1.50;0.90;;;;;;;10.89;65.10;98006.44;5003924;28;20523;-76
2022/04/07 06:37:23;;;;;;;1.57;1.47;;;;;;;10.87;65.50;98003.94;5003092;28;20245;-76
2022/04/07 06:39:49;;;;;;;0.80;0.80;;;;;;;10.87;65.24;97989.97;5003356;28;20214;-76
2022/04/07 06:42:15;;;;;;;2.87;0.90;;;;;;;10.88;65.27;97989.00;5004404;28;20396;-76
2022/04/07 06:44:40;;;;;;;1.20;0.90;;;;;;;10.90;64.69;97984.44;5001797;28;20286;-78
2022/04/07 06:47:06;;;;;;;0.93;0.83;;;;;;;10.94;64.09;97996.34;5004529;28;20289;-77
2022/04/07 06:49:31;;;;;;;0.90;0.80;;;;;;;10.98;64.11;97985.38;5003449;28;20210;-76
2022/04/07 06:51:57;;;;;;;1.33;0.80;;;;;;;11.00;63.95;97978.22;5005905;28;20233;-76
2022/04/07 06:54:22;;;;;;;1.93;0.90;;;;;;;11.05;63.57;97973.38;5005680;28;20517;-76
2022/04/07 06:56:47;;;;;;;1.20;1.00;;;;;;;11.08;63.22;97977.50;5005035;28;20226;-76
2022/04/07 06:59:13;;;;;;;1.63;0.90;;;;;;;11.08;63.47;97977.50;5003680;28;20502;-76
2022/04/07 07:01:38;;;;;;;1.70;0.77;;;;;;;11.10;63.56;97986.09;5002450;28;20483;-77
2022/04/07 07:04:04;;;;;;;1.13;1.03;;;;;;;11.14;63.37;97965.59;5003863;28;20211;-77
2022/04/07 07:06:30;;;;;;;1.00;0.90;;;;;;;11.15;63.38;97965.47;5003981;28;20230;-76
2022/04/07 07:08:55;;;;;;;1.40;0.90;;;;;;;11.17;63.51;97954.81;5004804;28;20211;-77
2022/04/07 07:11:21;;;;;;;1.43;0.83;;;;;;;11.20;63.44;97946.63;5004520;28;20285;-76
2022/04/07 07:13:46;;;;;;;1.00;0.70;;;;;;;11.22;63.27;97924.50;5005713;28;20845;-77
2022/04/07 07:16:12;;;;;;;1.77;0.80;;;;;;;11.25;63.42;97947.88;5003851;28;20733;-76
2022/04/07 07:18:38;;;;;;;0.80;0.80;;;;;;;11.28;63.50;97942.31;5003556;28;20218;-77
2022/04/07 07:21:04;;;;;;;0.70;0.63;;;;;;;11.34;62.80;97950.59;5003077;28;20214;-76
2022/04/07 07:23:32;;;;;;;0.73;0.73;;;;;;;11.33;62.93;97949.78;5002333;28;20293;-76
2022/04/07 07:25:57;;;;;;;1.42;1.10;;;;;;;11.34;62.95;97959.34;5001202;28;20242;-77
2022/04/07 07:28:23;;;;;;;1.60;1.10;;;;;;;11.34;63.06;97943.56;5002917;28;20265;-76
2022/04/07 07:30:48;;;;;;;4.30;1.70;;;;;;;11.37;63.08;97932.75;5003045;28;20982;-77
2022/04/07 07:33:14;;;;;;;3.13;1.90;;;;;;;11.37;63.53;97924.03;5002314;28;20210;-76
2022/04/07 07:35:42;;;;;;;2.27;1.37;;;;;;;11.38;63.62;97917.81;5002986;28;20321;-76
2022/04/07 07:38:07;;;;;;;7.75;4.47;;;;;;;11.42;63.52;97914.75;5002934;28;20218;-76
2022/04/07 07:40:34;;;;;;;7.00;1.87;;;;;;;11.39;63.58;97908.94;5001750;28;20226;-76
2022/04/07 07:43:00;;;;;;;3.80;2.20;;;;;;;11.41;63.46;97912.25;5000179;28;20226;-76
2022/04/07 07:45:35;;;;;;;4.05;2.17;;;;;;;11.39;63.67;97904.50;5002660;28;20565;-75
2022/04/07 07:48:00;;;;;;;3.55;2.30;;;;;;;11.40;63.71;97905.38;5000514;28;20210;-76
2022/04/07 07:50:26;;;;;;;5.20;2.13;;;;;;;11.45;63.44;97897.84;5003266;28;20712;-76
2022/04/07 07:52:52;;;;;;;5.47;2.40;;;;;;;11.49;63.23;97902.69;5001899;28;20556;-76
2022/04/07 07:55:17;;;;;;;7.20;4.00;;;;;;;11.55;63.31;97897.81;5001577;28;20317;-74
2022/04/07 07:57:43;;;;;;;5.50;2.57;;;;;;;11.67;63.01;97902.75;5005050;28;20211;-77
2022/04/07 08:00:10;;;;;;;1.48;0.90;;;;;;;11.78;62.56;97885.09;5004024;28;20285;-77
2022/04/07 08:02:38;;;;;;;1.10;0.90;;;;;;;11.82;62.67;97907.50;5002202;28;20485;-77
2022/04/07 08:05:05;;;;;;;0.70;0.60;;;;;;;11.80;62.75;97896.28;5002196;28;20681;-76
2022/04/07 08:07:31;;;;;;;0.90;0.82;;;;;;;11.78;63.13;97900.91;5002833;28;20203;-77
2022/04/07 08:09:57;;;;;;;0.70;0.70;;;;;;;11.73;62.88;97886.38;5003602;28;20513;-75
2022/04/07 08:12:26;;;;;;;1.03;0.93;;;;;;;11.70;63.19;97880.56;5001076;28;20218;-75
2022/04/07 08:14:52;;;;;;;1.38;0.80;;;;;;;11.69;63.29;97873.66;5002735;28;21383;-75
2022/04/07 08:17:18;;;;;;;1.27;0.70;;;;;;;11.68;63.54;97857.03;5004169;28;20233;-75
2022/04/07 08:19:43;;;;;;;1.33;1.23;;;;;;;11.71;63.23;97853.28;5003879;28;20806;-75
2022/04/07 08:22:09;;;;;;;1.67;0.80;;;;;;;11.72;62.95;97852.34;5009009;28;20468;-76
2022/04/07 08:24:35;;;;;;;0.80;0.70;;;;;;;11.74;62.78;97845.91;5002387;28;20231;-76
2022/04/07 08:27:05;;;;;;;1.00;0.70;;;;;;;11.79;62.65;97836.78;5001957;28;20317;-76
2022/04/07 08:29:31;;;;;;;1.00;0.68;;;;;;;11.80;62.77;97848.94;5001906;28;20202;-75
2022/04/07 08:31:56;;;;;;;1.30;1.00;;;;;;;11.83;62.73;97843.41;4997411;28;20221;-76
2022/04/07 08:34:21;;;;;;;1.47;0.77;;;;;;;11.85;62.90;97841.44;5002201;28;20781;-76
2022/04/07 08:36:47;;;;;;;0.90;0.63;;;;;;;11.89;62.57;97834.94;5002343;28;20227;-76
2022/04/07 08:39:13;;;;;;;1.63;0.70;;;;;;;11.97;62.63;97829.75;5003154;28;20652;-76
2022/04/07 08:41:44;;;;;;;0.77;0.67;;;;;;;12.05;62.39;97831.66;5002757;28;20210;-76
2022/04/07 08:44:09;;;;;;;0.82;0.70;;;;;;;12.16;62.08;97837.50;5003416;28;20583;-75
2022/04/07 08:46:35;;;;;;;0.70;0.67;;;;;;;12.25;61.79;97822.59;5001507;28;20211;-76
2022/04/07 08:49:04;;;;;;;1.20;0.70;;;;;;;12.33;61.79;97833.19;5001258;28;20207;-76
2022/04/07 08:51:30;;;;;;;1.00;0.90;;;;;;;12.42;61.29;97818.28;5000416;28;20253;-75
2022/04/07 08:53:55;;;;;;;0.90;0.80;;;;;;;12.42;61.20;97836.72;5002035;28;20218;-77
2022/04/07 08:56:23;;;;;;;0.93;0.93;;;;;;;12.44;61.18;97837.38;5001334;28;20227;-75
2022/04/07 08:58:49;;;;;;;1.88;0.70;;;;;;;12.43;61.08;97843.66;5002791;28;20656;-76
2022/04/07 09:01:15;;;;;;;0.93;0.80;;;;;;;12.49;60.53;97840.41;5004476;28;20208;-77
2022/04/07 09:03:42;;;;;;;0.90;0.70;;;;;;;12.50;60.37;97843.84;5003652;28;20684;-77
2022/04/07 09:06:07;;;;;;;3.85;0.80;;;;;;;12.50;60.52;97838.59;5019789;28;20318;-77
2022/04/07 09:08:38;;;;;;;0.97;0.80;;;;;;;12.47;62.72;97838.88;5005120;28;20210;-76
2022/04/07 09:11:06;;;;;;;1.00;0.90;;;;;;;12.35;63.37;97827.78;5006480;28;20593;-76
2022/04/07 09:13:36;;;;;;;1.08;0.90;;;;;;;12.20;64.69;97832.75;5004778;28;20241;-76
2022/04/07 09:16:28;;;;;;;1.15;0.80;;;;;;;12.08;65.72;97824.25;5004742;28;20237;-76
2022/04/07 09:18:54;;;;;;;0.88;0.70;;;;;;;11.99;66.31;97816.44;5004719;28;20221;-76
2022/04/07 09:21:25;;;;;;;1.40;0.80;;;;;;;11.91;66.61;97833.81;5004099;28;20622;-76
2022/04/07 09:23:56;;;;;;;0.80;0.80;;;;;;;11.86;66.64;97822.91;5003517;28;20223;-76
2022/04/07 09:26:21;;;;;;;2.30;0.90;;;;;;;11.85;66.54;97823.84;5003073;28;20238;-74
2022/04/07 09:28:47;;;;;;;1.43;1.23;;;;;;;11.89;65.80;97816.53;5004660;28;20214;-75
2022/04/07 09:31:15;;;;;;;0.90;0.80;;;;;;;11.90;65.68;97797.13;5004247;28;20211;-76
2022/04/07 09:33:41;;;;;;;1.25;0.80;;;;;;;11.93;65.50;97810.78;5004313;28;20225;-76
2022/04/07 09:36:08;;;;;;;0.82;0.60;;;;;;;12.01;65.23;97809.22;5002499;28;20456;-76
2022/04/07 09:38:35;;;;;;;1.33;1.23;;;;;;;12.01;65.22;97796.88;5004106;28;20222;-76
2022/04/07 09:41:06;;;;;;;1.20;0.90;;;;;;;12.05;65.00;97793.00;5006303;28;21465;-76
2022/04/07 09:43:53;;;;;;;1.13;0.80;;;;;;;12.09;64.93;97796.97;5005687;28;20218;-76
2022/04/07 09:46:20;;;;;;;1.58;0.70;;;;;;;12.12;64.61;97796.69;5004448;28;20230;-76
2022/04/07 09:49:10;;;;;;;0.82;0.75;;;;;;;12.15;64.56;97785.84;5002426;28;20455;-76
2022/04/07 09:51:48;;;;;;;0.75;0.70;;;;;;;12.20;64.58;97789.81;5002500;28;20206;-76
2022/04/07 09:54:18;;;;;;;0.80;0.60;;;;;;;12.29;63.89;97775.75;5002340;28;20220;-77
2022/04/07 09:56:45;;;;;;;0.80;0.60;;;;;;;12.27;63.96;97767.16;5003985;28;20222;-76
2022/04/07 09:59:14;;;;;;;1.08;0.70;;;;;;;12.28;64.01;97790.69;5014811;28;20215;-76
2022/04/07 10:01:39;;;;;;;0.90;0.75;;;;;;;12.31;63.80;97793.03;5002905;28;20752;-76
2022/04/07 10:04:06;;;;;;;0.70;0.70;;;;;;;12.31;63.63;97785.16;5004133;28;20221;-76
2022/04/07 10:06:35;;;;;;;0.70;0.60;;;;;;;12.35;63.66;97769.88;5002038;28;20206;-75
2022/04/07 10:09:09;;;;;;;4.25;0.70;;;;;;;12.40;63.58;97755.25;5003502;28;20218;-76
2022/04/07 10:11:35;;;;;;;2.38;0.70;;;;;;;12.48;63.22;97741.31;5019015;28;20588;-76
2022/04/07 10:14:01;;;;;;;0.70;0.60;;;;;;;12.56;63.17;97744.00;5004042;28;20442;-76
2022/04/07 10:16:27;;;;;;;0.80;0.70;;;;;;;12.68;62.69;97720.03;5018259;28;20246;-76
2022/04/07 10:19:01;;;;;;;0.68;0.60;;;;;;;12.78;62.40;97737.38;5003252;28;20223;-76
2022/04/07 10:21:39;;;;;;;2.08;0.80;;;;;;;12.96;62.10;97754.88;5002099;28;20221;-76
2022/04/07 10:24:43;;;;;;;0.75;0.68;;;;;;;13.16;61.65;97739.66;5001034;28;20265;-76
2022/04/07 10:27:10;;;;;;;1.10;0.70;;;;;;;13.37;61.10;97736.63;5003124;28;20361;-76
2022/04/07 10:29:38;;;;;;;1.13;0.80;;;;;;;13.52;60.58;97731.53;5003343;28;20195;-75
2022/04/07 10:32:12;;;;;;;1.77;0.80;;;;;;;13.63;60.06;97723.31;5001745;28;20477;-77
2022/04/07 10:34:54;;;;;;;0.70;0.60;;;;;;;13.60;59.72;97739.47;5002209;28;20234;-76
2022/04/07 10:37:41;;;;;;;0.90;0.70;;;;;;;13.56;59.95;97732.88;5007385;28;20234;-75
2022/04/07 10:40:33;;;;;;;4.00;0.70;;;;;;;13.47;60.38;97747.84;5003335;28;20568;-76
2022/04/07 10:43:31;;;;;;;0.90;0.60;;;;;;;13.36;60.71;97746.31;5018733;28;20672;-75
2022/04/07 10:46:05;;;;;;;1.00;0.70;;;;;;;13.21;60.88;97737.38;5004863;28;20261;-77
2022/04/07 10:48:59;;;;;;;1.10;0.73;;;;;;;13.10;61.42;97746.41;5007044;28;20294;-78
2022/04/07 10:51:45;;;;;;;1.70;0.60;;;;;;;13.02;61.50;97723.47;5007472;28;20641;-76
2022/04/07 10:54:12;;;;;;;0.70;0.65;;;;;;;12.96;61.77;97736.44;5005024;28;20205;-76
2022/04/07 10:56:39;;;;;;;0.70;0.60;;;;;;;12.91;61.72;97747.47;5008328;28;20268;-77
2022/04/07 10:59:13;;;;;;;0.70;0.60;;;;;;;12.85;61.75;97711.19;5007809;28;20680;-76
2022/04/07 11:01:38;;;;;;;1.00;0.80;;;;;;;12.81;61.84;97734.41;5005470;28;20965;-76
2022/04/07 11:04:22;;;;;;;0.70;0.67;;;;;;;12.73;62.13;97701.94;5006193;28;20214;-75
2022/04/07 11:09:43;;;;;;;1.45;0.60;;;;;;;12.57;63.78;97723.75;5006306;28;20839;-74
2022/04/07 11:12:10;;;;;;;1.83;0.60;;;;;;;12.53;63.66;97709.22;5007007;28;20210;-76
2022/04/07 11:14:35;;;;;;;0.60;0.60;;;;;;;12.55;63.89;97699.38;5011310;28;20233;-76
2022/04/07 11:17:05;;;;;;;0.80;0.70;;;;;;;12.63;63.13;97683.59;5005550;28;20743;-76
2022/04/07 11:19:55;;;;;;;0.60;0.50;;;;;;;12.76;62.51;97685.81;5005704;28;20214;-76
2022/04/07 11:22:53;;;;;;;4.40;0.88;;;;;;;12.89;61.96;97670.38;5005267;28;20974;-77
2022/04/07 11:25:24;;;;;;;1.00;0.80;;;;;;;12.99;61.51;97673.72;5003621;28;20926;-76
2022/04/07 11:28:10;;;;;;;1.67;0.60;;;;;;;12.99;61.60;97678.97;5011001;28;20222;-75
2022/04/07 11:30:41;;;;;;;0.70;0.60;;;;;;;13.00;60.91;97691.16;5010245;28;20219;-77
2022/04/07 11:35:59;;;;;;;2.78;1.35;;;;;;;13.11;60.86;97678.69;5013965;28;20231;-77
2022/04/07 11:38:33;;;;;;;1.33;0.65;;;;;;;13.13;61.14;97661.72;5014885;28;20218;-75
2022/04/07 11:40:58;;;;;;;1.33;0.60;;;;;;;13.14;61.23;97671.28;5014113;28;20296;-76
2022/04/07 11:43:24;;;;;;;1.60;0.60;;;;;;;13.19;61.28;97668.16;5014407;28;20307;-76